sensor_id;sensor_type;location;lat;lon;timestamp;P1;durP1;ratioP1;P2;durP2;ratioP2
49834;SDS011;35729;52.090;13.162;2023-12-07T00:01:37;41.60;;;25.77;;
49834;SDS011;35729;52.090;13.162;2023-12-07T00:04:03;40.35;;;25.45;;
49834;SDS011;35729;52.090;13.162;2023-12-07T00:06:32;42.95;;;26.23;;
49834;SDS011;35729;52.090;13.162;2023-12-07T00:09:00;43.30;;;26.48;;
49834;SDS011;35729;52.090;13.162;2023-12-07T00:11:29;42.97;;;26.92;;
49834;SDS011;35729;52.090;13.162;2023-12-07T00:14:00;41.45;;;25.88;;
49834;SDS011;35729;52.090;13.162;2023-12-07T00:35:29;45.15;;;26.27;;
49834;SDS011;35729;52.090;13.162;2023-12-07T00:37:58;43.72;;;25.88;;
49834;SDS011;35729;52.090;13.162;2023-12-07T00:40:33;43.35;;;25.30;;
49834;SDS011;35729;52.090;13.162;2023-12-07T00:43:04;42.15;;;25.67;;
49834;SDS011;35729;52.090;13.162;2023-12-07T00:45:33;42.53;;;26.63;;
49834;SDS011;35729;52.090;13.162;2023-12-07T00:48:02;42.17;;;25.83;;
49834;SDS011;35729;52.090;13.162;2023-12-07T00:50:33;41.53;;;25.98;;
49834;SDS011;35729;52.090;13.162;2023-12-07T00:53:01;41.78;;;25.60;;
49834;SDS011;35729;52.090;13.162;2023-12-07T00:55:30;41.50;;;25.42;;
49834;SDS011;35729;52.090;13.162;2023-12-07T00:57:58;38.92;;;25.48;;
49834;SDS011;35729;52.090;13.162;2023-12-07T01:00:27;42.75;;;25.70;;
49834;SDS011;35729;52.090;13.162;2023-12-07T01:02:55;42.83;;;25.77;;
49834;SDS011;35729;52.090;13.162;2023-12-07T01:05:24;43.08;;;26.40;;
49834;SDS011;35729;52.090;13.162;2023-12-07T01:07:55;41.25;;;24.67;;
49834;SDS011;35729;52.090;13.162;2023-12-07T01:10:24;44.67;;;25.40;;
49834;SDS011;35729;52.090;13.162;2023-12-07T01:12:52;42.47;;;26.02;;
49834;SDS011;35729;52.090;13.162;2023-12-07T01:15:21;40.10;;;24.13;;
49834;SDS011;35729;52.090;13.162;2023-12-07T01:17:49;42.47;;;25.90;;
49834;SDS011;35729;52.090;13.162;2023-12-07T01:20:17;42.08;;;25.73;;
49834;SDS011;35729;52.090;13.162;2023-12-07T01:22:46;43.72;;;24.73;;
49834;SDS011;35729;52.090;13.162;2023-12-07T01:25:17;45.53;;;26.42;;
49834;SDS011;35729;52.090;13.162;2023-12-07T01:27:46;39.83;;;24.25;;
49834;SDS011;35729;52.090;13.162;2023-12-07T01:30:15;41.83;;;25.02;;
49834;SDS011;35729;52.090;13.162;2023-12-07T01:32:44;42.53;;;25.50;;
49834;SDS011;35729;52.090;13.162;2023-12-07T01:35:12;42.22;;;25.20;;
49834;SDS011;35729;52.090;13.162;2023-12-07T01:37:41;45.38;;;26.92;;
49834;SDS011;35729;52.090;13.162;2023-12-07T01:40:19;39.92;;;24.30;;
49834;SDS011;35729;52.090;13.162;2023-12-07T01:42:50;44.40;;;26.13;;
49834;SDS011;35729;52.090;13.162;2023-12-07T01:45:19;45.63;;;27.15;;
49834;SDS011;35729;52.090;13.162;2023-12-07T01:47:49;44.97;;;26.05;;
49834;SDS011;35729;52.090;13.162;2023-12-07T01:50:19;42.17;;;25.67;;
49834;SDS011;35729;52.090;13.162;2023-12-07T01:52:51;44.00;;;26.17;;
49834;SDS011;35729;52.090;13.162;2023-12-07T01:55:25;47.92;;;26.95;;
49834;SDS011;35729;52.090;13.162;2023-12-07T01:57:55;46.80;;;27.42;;
49834;SDS011;35729;52.090;13.162;2023-12-07T02:00:24;41.03;;;24.15;;
49834;SDS011;35729;52.090;13.162;2023-12-07T02:02:54;43.95;;;26.23;;
49834;SDS011;35729;52.090;13.162;2023-12-07T02:05:23;44.38;;;26.85;;
49834;SDS011;35729;52.090;13.162;2023-12-07T02:07:53;46.65;;;27.17;;
49834;SDS011;35729;52.090;13.162;2023-12-07T02:10:25;45.35;;;26.33;;
49834;SDS011;35729;52.090;13.162;2023-12-07T02:12:53;44.30;;;26.52;;
49834;SDS011;35729;52.090;13.162;2023-12-07T02:15:22;42.03;;;25.52;;
49834;SDS011;35729;52.090;13.162;2023-12-07T02:17:52;44.17;;;25.83;;
49834;SDS011;35729;52.090;13.162;2023-12-07T02:20:28;46.28;;;27.38;;
49834;SDS011;35729;52.090;13.162;2023-12-07T02:23:00;45.17;;;26.73;;
49834;SDS011;35729;52.090;13.162;2023-12-07T02:25:35;41.13;;;25.42;;
49834;SDS011;35729;52.090;13.162;2023-12-07T02:28:08;44.50;;;27.17;;
49834;SDS011;35729;52.090;13.162;2023-12-07T02:30:36;41.85;;;25.75;;
49834;SDS011;35729;52.090;13.162;2023-12-07T02:33:05;46.25;;;26.45;;
49834;SDS011;35729;52.090;13.162;2023-12-07T02:35:34;42.75;;;25.98;;
49834;SDS011;35729;52.090;13.162;2023-12-07T02:38:04;43.85;;;26.52;;
49834;SDS011;35729;52.090;13.162;2023-12-07T02:40:40;44.03;;;26.73;;
49834;SDS011;35729;52.090;13.162;2023-12-07T02:43:19;42.13;;;26.65;;
49834;SDS011;35729;52.090;13.162;2023-12-07T02:45:49;45.63;;;27.17;;
49834;SDS011;35729;52.090;13.162;2023-12-07T02:48:19;45.05;;;27.52;;
49834;SDS011;35729;52.090;13.162;2023-12-07T02:50:49;47.80;;;28.50;;
49834;SDS011;35729;52.090;13.162;2023-12-07T02:53:17;46.90;;;27.02;;
49834;SDS011;35729;52.090;13.162;2023-12-07T02:55:46;45.08;;;28.23;;
49834;SDS011;35729;52.090;13.162;2023-12-07T02:58:14;44.50;;;26.52;;
49834;SDS011;35729;52.090;13.162;2023-12-07T03:00:45;53.78;;;28.73;;
49834;SDS011;35729;52.090;13.162;2023-12-07T03:03:14;49.72;;;27.90;;
49834;SDS011;35729;52.090;13.162;2023-12-07T03:05:42;48.20;;;28.20;;
49834;SDS011;35729;52.090;13.162;2023-12-07T03:08:10;56.00;;;29.23;;
49834;SDS011;35729;52.090;13.162;2023-12-07T03:10:39;53.20;;;29.85;;
49834;SDS011;35729;52.090;13.162;2023-12-07T03:13:07;48.50;;;28.90;;
49834;SDS011;35729;52.090;13.162;2023-12-07T03:15:36;53.28;;;30.63;;
49834;SDS011;35729;52.090;13.162;2023-12-07T03:18:07;55.22;;;30.85;;
49834;SDS011;35729;52.090;13.162;2023-12-07T03:20:35;60.70;;;31.70;;
49834;SDS011;35729;52.090;13.162;2023-12-07T03:23:04;61.10;;;33.08;;
49834;SDS011;35729;52.090;13.162;2023-12-07T03:25:32;61.47;;;32.28;;
49834;SDS011;35729;52.090;13.162;2023-12-07T03:28:01;68.60;;;33.10;;
49834;SDS011;35729;52.090;13.162;2023-12-07T03:36:10;63.25;;;31.95;;
49834;SDS011;35729;52.090;13.162;2023-12-07T03:38:39;66.10;;;34.22;;
49834;SDS011;35729;52.090;13.162;2023-12-07T03:41:07;65.95;;;32.33;;
49834;SDS011;35729;52.090;13.162;2023-12-07T03:43:36;66.88;;;34.17;;
49834;SDS011;35729;52.090;13.162;2023-12-07T03:46:04;73.15;;;35.63;;
49834;SDS011;35729;52.090;13.162;2023-12-07T03:48:34;71.95;;;35.00;;
49834;SDS011;35729;52.090;13.162;2023-12-07T03:51:02;75.47;;;35.55;;
49834;SDS011;35729;52.090;13.162;2023-12-07T03:53:34;75.93;;;36.08;;
49834;SDS011;35729;52.090;13.162;2023-12-07T03:56:02;72.72;;;33.85;;
49834;SDS011;35729;52.090;13.162;2023-12-07T03:58:31;74.15;;;34.42;;
49834;SDS011;35729;52.090;13.162;2023-12-07T04:01:00;73.78;;;34.88;;
49834;SDS011;35729;52.090;13.162;2023-12-07T04:03:28;74.85;;;34.00;;
49834;SDS011;35729;52.090;13.162;2023-12-07T04:05:57;69.97;;;34.40;;
49834;SDS011;35729;52.090;13.162;2023-12-07T04:08:25;76.15;;;35.35;;
49834;SDS011;35729;52.090;13.162;2023-12-07T04:10:56;76.97;;;35.95;;
49834;SDS011;35729;52.090;13.162;2023-12-07T04:13:25;81.13;;;35.33;;
49834;SDS011;35729;52.090;13.162;2023-12-07T04:15:53;81.18;;;35.65;;
49834;SDS011;35729;52.090;13.162;2023-12-07T04:18:22;76.93;;;35.03;;
49834;SDS011;35729;52.090;13.162;2023-12-07T04:20:50;79.95;;;34.75;;
49834;SDS011;35729;52.090;13.162;2023-12-07T04:23:19;81.22;;;35.28;;
49834;SDS011;35729;52.090;13.162;2023-12-07T04:25:47;90.15;;;36.83;;
49834;SDS011;35729;52.090;13.162;2023-12-07T04:28:18;80.25;;;36.53;;
49834;SDS011;35729;52.090;13.162;2023-12-07T04:30:47;89.20;;;36.10;;
49834;SDS011;35729;52.090;13.162;2023-12-07T04:33:15;82.53;;;35.65;;
49834;SDS011;35729;52.090;13.162;2023-12-07T04:35:44;79.13;;;34.42;;
49834;SDS011;35729;52.090;13.162;2023-12-07T04:38:19;85.68;;;36.53;;
49834;SDS011;35729;52.090;13.162;2023-12-07T04:40:47;88.38;;;35.97;;
49834;SDS011;35729;52.090;13.162;2023-12-07T04:43:18;97.35;;;38.38;;
49834;SDS011;35729;52.090;13.162;2023-12-07T04:45:47;87.95;;;36.25;;
49834;SDS011;35729;52.090;13.162;2023-12-07T04:48:15;87.13;;;36.92;;
49834;SDS011;35729;52.090;13.162;2023-12-07T04:50:44;88.82;;;35.67;;
49834;SDS011;35729;52.090;13.162;2023-12-07T04:53:12;90.28;;;35.85;;
49834;SDS011;35729;52.090;13.162;2023-12-07T04:55:41;91.22;;;35.85;;
49834;SDS011;35729;52.090;13.162;2023-12-07T04:58:24;96.82;;;36.20;;
49834;SDS011;35729;52.090;13.162;2023-12-07T05:00:52;93.00;;;36.38;;
49834;SDS011;35729;52.090;13.162;2023-12-07T05:03:21;90.13;;;38.60;;
49834;SDS011;35729;52.090;13.162;2023-12-07T05:05:50;90.47;;;36.05;;
49834;SDS011;35729;52.090;13.162;2023-12-07T05:08:18;102.05;;;38.35;;
49834;SDS011;35729;52.090;13.162;2023-12-07T05:10:47;91.85;;;36.17;;
49834;SDS011;35729;52.090;13.162;2023-12-07T05:13:16;93.25;;;36.40;;
49834;SDS011;35729;52.090;13.162;2023-12-07T05:15:47;116.82;;;46.95;;
49834;SDS011;35729;52.090;13.162;2023-12-07T05:18:16;114.70;;;44.28;;
49834;SDS011;35729;52.090;13.162;2023-12-07T05:20:44;100.65;;;40.45;;
49834;SDS011;35729;52.090;13.162;2023-12-07T05:23:13;105.07;;;38.40;;
49834;SDS011;35729;52.090;13.162;2023-12-07T05:25:42;94.97;;;35.42;;
49834;SDS011;35729;52.090;13.162;2023-12-07T05:28:11;98.78;;;37.72;;
49834;SDS011;35729;52.090;13.162;2023-12-07T05:30:39;96.25;;;38.40;;
49834;SDS011;35729;52.090;13.162;2023-12-07T05:33:11;95.35;;;38.70;;
49834;SDS011;35729;52.090;13.162;2023-12-07T05:35:39;94.68;;;37.03;;
49834;SDS011;35729;52.090;13.162;2023-12-07T05:38:08;97.40;;;36.88;;
49834;SDS011;35729;52.090;13.162;2023-12-07T05:40:36;100.35;;;38.67;;
49834;SDS011;35729;52.090;13.162;2023-12-07T05:43:05;102.15;;;38.03;;
49834;SDS011;35729;52.090;13.162;2023-12-07T05:45:34;100.50;;;39.08;;
49834;SDS011;35729;52.090;13.162;2023-12-07T05:48:02;100.22;;;39.08;;
49834;SDS011;35729;52.090;13.162;2023-12-07T05:50:33;107.93;;;39.60;;
49834;SDS011;35729;52.090;13.162;2023-12-07T05:53:04;111.20;;;39.13;;
49834;SDS011;35729;52.090;13.162;2023-12-07T05:55:34;105.43;;;38.00;;
49834;SDS011;35729;52.090;13.162;2023-12-07T05:58:02;108.57;;;40.90;;
49834;SDS011;35729;52.090;13.162;2023-12-07T06:00:31;118.28;;;40.08;;
49834;SDS011;35729;52.090;13.162;2023-12-07T06:03:00;125.22;;;42.50;;
49834;SDS011;35729;52.090;13.162;2023-12-07T06:05:29;116.95;;;39.13;;
49834;SDS011;35729;52.090;13.162;2023-12-07T06:08:00;114.30;;;41.80;;
49834;SDS011;35729;52.090;13.162;2023-12-07T06:10:29;107.10;;;38.28;;
49834;SDS011;35729;52.090;13.162;2023-12-07T06:12:57;122.68;;;41.03;;
49834;SDS011;35729;52.090;13.162;2023-12-07T06:15:26;117.80;;;41.25;;
49834;SDS011;35729;52.090;13.162;2023-12-07T06:17:55;111.57;;;39.22;;
49834;SDS011;35729;52.090;13.162;2023-12-07T06:20:24;112.53;;;39.53;;
49834;SDS011;35729;52.090;13.162;2023-12-07T06:22:53;108.65;;;39.00;;
49834;SDS011;35729;52.090;13.162;2023-12-07T06:25:25;116.72;;;40.67;;
49834;SDS011;35729;52.090;13.162;2023-12-07T06:27:53;111.95;;;41.10;;
49834;SDS011;35729;52.090;13.162;2023-12-07T06:30:22;106.97;;;41.42;;
49834;SDS011;35729;52.090;13.162;2023-12-07T06:32:50;119.32;;;41.55;;
49834;SDS011;35729;52.090;13.162;2023-12-07T06:35:19;116.88;;;41.95;;
49834;SDS011;35729;52.090;13.162;2023-12-07T06:37:48;110.07;;;39.67;;
49834;SDS011;35729;52.090;13.162;2023-12-07T06:40:16;116.57;;;40.60;;
49834;SDS011;35729;52.090;13.162;2023-12-07T06:42:48;106.60;;;38.92;;
49834;SDS011;35729;52.090;13.162;2023-12-07T06:45:16;108.20;;;40.67;;
49834;SDS011;35729;52.090;13.162;2023-12-07T06:47:45;105.65;;;39.20;;
49834;SDS011;35729;52.090;13.162;2023-12-07T06:50:13;112.13;;;40.83;;
49834;SDS011;35729;52.090;13.162;2023-12-07T06:52:42;123.88;;;42.38;;
49834;SDS011;35729;52.090;13.162;2023-12-07T06:55:10;114.70;;;40.85;;
49834;SDS011;35729;52.090;13.162;2023-12-07T06:57:39;125.13;;;40.17;;
49834;SDS011;35729;52.090;13.162;2023-12-07T07:00:11;114.70;;;43.00;;
49834;SDS011;35729;52.090;13.162;2023-12-07T07:02:40;120.60;;;39.95;;
49834;SDS011;35729;52.090;13.162;2023-12-07T07:05:08;120.75;;;39.03;;
49834;SDS011;35729;52.090;13.162;2023-12-07T07:07:37;118.25;;;41.75;;
49834;SDS011;35729;52.090;13.162;2023-12-07T07:10:07;112.63;;;42.42;;
49834;SDS011;35729;52.090;13.162;2023-12-07T07:12:37;114.18;;;41.90;;
49834;SDS011;35729;52.090;13.162;2023-12-07T07:15:06;123.82;;;40.15;;
49834;SDS011;35729;52.090;13.162;2023-12-07T07:17:38;117.88;;;41.05;;
49834;SDS011;35729;52.090;13.162;2023-12-07T07:20:07;131.75;;;44.90;;
49834;SDS011;35729;52.090;13.162;2023-12-07T07:22:36;121.00;;;44.40;;
49834;SDS011;35729;52.090;13.162;2023-12-07T07:25:06;120.60;;;41.45;;
49834;SDS011;35729;52.090;13.162;2023-12-07T07:27:35;125.80;;;38.40;;
49834;SDS011;35729;52.090;13.162;2023-12-07T07:30:04;132.55;;;41.42;;
49834;SDS011;35729;52.090;13.162;2023-12-07T07:32:33;130.70;;;40.72;;
49834;SDS011;35729;52.090;13.162;2023-12-07T07:35:05;127.43;;;43.38;;
49834;SDS011;35729;52.090;13.162;2023-12-07T07:37:36;128.25;;;43.90;;
49834;SDS011;35729;52.090;13.162;2023-12-07T07:40:12;138.50;;;46.22;;
49834;SDS011;35729;52.090;13.162;2023-12-07T07:42:47;141.63;;;47.20;;
49834;SDS011;35729;52.090;13.162;2023-12-07T07:45:15;146.48;;;49.15;;
49834;SDS011;35729;52.090;13.162;2023-12-07T07:47:44;136.75;;;44.22;;
49834;SDS011;35729;52.090;13.162;2023-12-07T07:50:15;135.20;;;44.85;;
49834;SDS011;35729;52.090;13.162;2023-12-07T07:52:43;129.52;;;46.05;;
49834;SDS011;35729;52.090;13.162;2023-12-07T07:55:12;139.63;;;45.67;;
49834;SDS011;35729;52.090;13.162;2023-12-07T07:57:40;145.07;;;46.72;;
49834;SDS011;35729;52.090;13.162;2023-12-07T08:00:09;132.07;;;43.92;;
49834;SDS011;35729;52.090;13.162;2023-12-07T08:02:40;136.90;;;44.42;;
49834;SDS011;35729;52.090;13.162;2023-12-07T08:05:09;137.90;;;40.92;;
49834;SDS011;35729;52.090;13.162;2023-12-07T08:07:40;138.23;;;41.75;;
49834;SDS011;35729;52.090;13.162;2023-12-07T08:10:09;153.70;;;43.38;;
49834;SDS011;35729;52.090;13.162;2023-12-07T08:12:39;139.00;;;41.65;;
49834;SDS011;35729;52.090;13.162;2023-12-07T08:15:09;139.85;;;43.75;;
49834;SDS011;35729;52.090;13.162;2023-12-07T08:17:37;141.23;;;41.70;;
49834;SDS011;35729;52.090;13.162;2023-12-07T08:20:07;149.13;;;43.33;;
49834;SDS011;35729;52.090;13.162;2023-12-07T08:22:40;139.40;;;42.65;;
49834;SDS011;35729;52.090;13.162;2023-12-07T08:25:09;154.05;;;44.47;;
49834;SDS011;35729;52.090;13.162;2023-12-07T08:27:38;169.95;;;55.63;;
49834;SDS011;35729;52.090;13.162;2023-12-07T08:30:09;147.15;;;43.25;;
49834;SDS011;35729;52.090;13.162;2023-12-07T08:33:00;147.90;;;42.83;;
49834;SDS011;35729;52.090;13.162;2023-12-07T08:35:29;136.63;;;42.88;;
49834;SDS011;35729;52.090;13.162;2023-12-07T08:38:00;147.57;;;41.55;;
49834;SDS011;35729;52.090;13.162;2023-12-07T08:40:29;148.32;;;42.70;;
49834;SDS011;35729;52.090;13.162;2023-12-07T08:43:04;136.18;;;40.22;;
49834;SDS011;35729;52.090;13.162;2023-12-07T08:45:32;131.18;;;40.80;;
49834;SDS011;35729;52.090;13.162;2023-12-07T08:48:03;128.02;;;39.45;;
49834;SDS011;35729;52.090;13.162;2023-12-07T08:50:32;133.95;;;39.30;;
49834;SDS011;35729;52.090;13.162;2023-12-07T08:53:03;128.25;;;39.17;;
49834;SDS011;35729;52.090;13.162;2023-12-07T08:55:32;128.18;;;38.30;;
49834;SDS011;35729;52.090;13.162;2023-12-07T08:58:00;121.15;;;39.85;;
49834;SDS011;35729;52.090;13.162;2023-12-07T09:00:30;204.38;;;74.65;;
49834;SDS011;35729;52.090;13.162;2023-12-07T09:02:58;150.80;;;48.00;;
49834;SDS011;35729;52.090;13.162;2023-12-07T09:05:27;136.00;;;40.65;;
49834;SDS011;35729;52.090;13.162;2023-12-07T09:07:55;127.88;;;39.22;;
49834;SDS011;35729;52.090;13.162;2023-12-07T09:10:27;120.90;;;38.75;;
49834;SDS011;35729;52.090;13.162;2023-12-07T09:12:55;111.55;;;38.60;;
49834;SDS011;35729;52.090;13.162;2023-12-07T09:15:24;104.30;;;36.38;;
49834;SDS011;35729;52.090;13.162;2023-12-07T09:17:52;113.35;;;39.47;;
49834;SDS011;35729;52.090;13.162;2023-12-07T09:20:22;103.07;;;37.20;;
49834;SDS011;35729;52.090;13.162;2023-12-07T09:22:51;97.60;;;37.72;;
49834;SDS011;35729;52.090;13.162;2023-12-07T09:25:20;86.80;;;34.20;;
49834;SDS011;35729;52.090;13.162;2023-12-07T09:27:51;91.93;;;34.22;;
49834;SDS011;35729;52.090;13.162;2023-12-07T09:30:20;83.32;;;36.40;;
49834;SDS011;35729;52.090;13.162;2023-12-07T09:32:48;85.10;;;35.60;;
49834;SDS011;35729;52.090;13.162;2023-12-07T09:35:16;88.97;;;35.97;;
49834;SDS011;35729;52.090;13.162;2023-12-07T09:37:47;83.40;;;35.80;;
49834;SDS011;35729;52.090;13.162;2023-12-07T09:40:16;82.05;;;36.05;;
49834;SDS011;35729;52.090;13.162;2023-12-07T09:42:54;78.57;;;33.55;;
49834;SDS011;35729;52.090;13.162;2023-12-07T09:45:30;74.70;;;33.80;;
49834;SDS011;35729;52.090;13.162;2023-12-07T09:47:59;74.57;;;33.03;;
49834;SDS011;35729;52.090;13.162;2023-12-07T09:50:28;72.10;;;32.15;;
49834;SDS011;35729;52.090;13.162;2023-12-07T09:52:57;65.20;;;31.15;;
49834;SDS011;35729;52.090;13.162;2023-12-07T09:55:26;66.22;;;31.25;;
49834;SDS011;35729;52.090;13.162;2023-12-07T09:57:58;63.15;;;31.13;;
49834;SDS011;35729;52.090;13.162;2023-12-07T10:00:27;70.30;;;33.72;;
49834;SDS011;35729;52.090;13.162;2023-12-07T10:02:55;63.03;;;30.60;;
49834;SDS011;35729;52.090;13.162;2023-12-07T10:05:24;66.85;;;31.33;;
49834;SDS011;35729;52.090;13.162;2023-12-07T10:07:52;70.78;;;31.30;;
49834;SDS011;35729;52.090;13.162;2023-12-07T10:10:20;67.85;;;32.10;;
49834;SDS011;35729;52.090;13.162;2023-12-07T10:12:51;73.78;;;33.60;;
49834;SDS011;35729;52.090;13.162;2023-12-07T10:15:23;70.72;;;32.80;;
49834;SDS011;35729;52.090;13.162;2023-12-07T10:17:54;74.30;;;34.75;;
49834;SDS011;35729;52.090;13.162;2023-12-07T10:20:24;79.60;;;35.25;;
49834;SDS011;35729;52.090;13.162;2023-12-07T10:23:00;70.22;;;31.70;;
49834;SDS011;35729;52.090;13.162;2023-12-07T10:25:30;72.43;;;34.65;;
49834;SDS011;35729;52.090;13.162;2023-12-07T10:27:59;66.75;;;33.78;;
49834;SDS011;35729;52.090;13.162;2023-12-07T10:30:34;74.68;;;33.92;;
49834;SDS011;35729;52.090;13.162;2023-12-07T10:33:03;74.70;;;36.47;;
49834;SDS011;35729;52.090;13.162;2023-12-07T10:35:32;66.78;;;33.80;;
49834;SDS011;35729;52.090;13.162;2023-12-07T10:38:01;67.25;;;33.40;;
49834;SDS011;35729;52.090;13.162;2023-12-07T10:40:30;102.57;;;49.67;;
49834;SDS011;35729;52.090;13.162;2023-12-07T10:42:58;81.88;;;39.58;;
49834;SDS011;35729;52.090;13.162;2023-12-07T10:45:34;74.28;;;34.13;;
49834;SDS011;35729;52.090;13.162;2023-12-07T10:48:05;73.70;;;34.05;;
49834;SDS011;35729;52.090;13.162;2023-12-07T10:50:35;77.63;;;37.42;;
49834;SDS011;35729;52.090;13.162;2023-12-07T10:53:08;71.97;;;34.33;;
49834;SDS011;35729;52.090;13.162;2023-12-07T10:55:40;67.55;;;32.45;;
49834;SDS011;35729;52.090;13.162;2023-12-07T10:58:20;69.28;;;32.75;;
49834;SDS011;35729;52.090;13.162;2023-12-07T11:00:54;70.82;;;32.08;;
49834;SDS011;35729;52.090;13.162;2023-12-07T11:03:25;70.20;;;30.45;;
49834;SDS011;35729;52.090;13.162;2023-12-07T11:05:56;65.75;;;30.95;;
49834;SDS011;35729;52.090;13.162;2023-12-07T11:08:27;72.50;;;31.95;;
49834;SDS011;35729;52.090;13.162;2023-12-07T11:13:33;65.13;;;27.77;;
49834;SDS011;35729;52.090;13.162;2023-12-07T11:16:07;68.13;;;29.80;;
49834;SDS011;35729;52.090;13.162;2023-12-07T11:18:37;59.97;;;27.33;;
49834;SDS011;35729;52.090;13.162;2023-12-07T11:21:06;65.20;;;28.98;;
49834;SDS011;35729;52.090;13.162;2023-12-07T11:23:34;73.22;;;32.70;;
49834;SDS011;35729;52.090;13.162;2023-12-07T11:26:04;68.75;;;29.10;;
49834;SDS011;35729;52.090;13.162;2023-12-07T11:28:34;65.40;;;29.27;;
49834;SDS011;35729;52.090;13.162;2023-12-07T11:31:04;70.28;;;29.63;;
49834;SDS011;35729;52.090;13.162;2023-12-07T11:33:37;69.80;;;29.58;;
49834;SDS011;35729;52.090;13.162;2023-12-07T11:36:07;69.85;;;29.80;;
49834;SDS011;35729;52.090;13.162;2023-12-07T11:38:37;71.07;;;29.80;;
49834;SDS011;35729;52.090;13.162;2023-12-07T11:41:07;69.80;;;29.73;;
49834;SDS011;35729;52.090;13.162;2023-12-07T11:43:41;75.72;;;29.60;;
49834;SDS011;35729;52.090;13.162;2023-12-07T11:46:17;68.82;;;27.83;;
49834;SDS011;35729;52.090;13.162;2023-12-07T11:48:46;76.53;;;30.98;;
49834;SDS011;35729;52.090;13.162;2023-12-07T11:51:16;71.57;;;31.75;;
49834;SDS011;35729;52.090;13.162;2023-12-07T11:53:45;82.40;;;36.75;;
49834;SDS011;35729;52.090;13.162;2023-12-07T11:56:14;110.78;;;47.40;;
49834;SDS011;35729;52.090;13.162;2023-12-07T11:58:45;73.72;;;31.20;;
49834;SDS011;35729;52.090;13.162;2023-12-07T12:01:17;72.18;;;31.42;;
49834;SDS011;35729;52.090;13.162;2023-12-07T12:03:45;72.47;;;31.08;;
49834;SDS011;35729;52.090;13.162;2023-12-07T12:06:15;79.22;;;32.33;;
49834;SDS011;35729;52.090;13.162;2023-12-07T12:08:44;70.18;;;30.25;;
49834;SDS011;35729;52.090;13.162;2023-12-07T12:11:12;66.32;;;27.48;;
49834;SDS011;35729;52.090;13.162;2023-12-07T12:13:41;70.05;;;28.25;;
49834;SDS011;35729;52.090;13.162;2023-12-07T12:16:09;82.15;;;32.58;;
49834;SDS011;35729;52.090;13.162;2023-12-07T12:18:41;87.15;;;34.35;;
49834;SDS011;35729;52.090;13.162;2023-12-07T12:21:10;80.53;;;32.38;;
49834;SDS011;35729;52.090;13.162;2023-12-07T12:23:38;84.22;;;31.33;;
49834;SDS011;35729;52.090;13.162;2023-12-07T12:26:09;74.05;;;31.73;;
49834;SDS011;35729;52.090;13.162;2023-12-07T12:28:38;83.03;;;31.60;;
49834;SDS011;35729;52.090;13.162;2023-12-07T12:31:09;78.57;;;30.48;;
49834;SDS011;35729;52.090;13.162;2023-12-07T12:33:41;85.55;;;32.92;;
49834;SDS011;35729;52.090;13.162;2023-12-07T12:36:10;84.78;;;32.45;;
49834;SDS011;35729;52.090;13.162;2023-12-07T12:38:38;88.43;;;34.65;;
49834;SDS011;35729;52.090;13.162;2023-12-07T12:41:07;78.95;;;30.90;;
49834;SDS011;35729;52.090;13.162;2023-12-07T12:43:36;87.80;;;33.97;;
49834;SDS011;35729;52.090;13.162;2023-12-07T12:46:05;89.55;;;32.92;;
49834;SDS011;35729;52.090;13.162;2023-12-07T12:48:33;94.03;;;34.28;;
49834;SDS011;35729;52.090;13.162;2023-12-07T12:51:10;88.90;;;33.90;;
49834;SDS011;35729;52.090;13.162;2023-12-07T12:53:41;89.32;;;34.78;;
49834;SDS011;35729;52.090;13.162;2023-12-07T12:56:12;86.82;;;31.00;;
49834;SDS011;35729;52.090;13.162;2023-12-07T12:58:41;85.15;;;31.83;;
49834;SDS011;35729;52.090;13.162;2023-12-07T13:01:10;79.68;;;28.73;;
49834;SDS011;35729;52.090;13.162;2023-12-07T13:03:38;81.40;;;31.48;;
49834;SDS011;35729;52.090;13.162;2023-12-07T13:06:09;82.25;;;34.95;;
49834;SDS011;35729;52.090;13.162;2023-12-07T13:08:39;81.38;;;31.17;;
49834;SDS011;35729;52.090;13.162;2023-12-07T13:11:08;78.22;;;29.13;;
49834;SDS011;35729;52.090;13.162;2023-12-07T13:13:37;79.75;;;31.00;;
49834;SDS011;35729;52.090;13.162;2023-12-07T13:16:06;75.18;;;29.58;;
49834;SDS011;35729;52.090;13.162;2023-12-07T13:18:37;79.38;;;31.90;;
49834;SDS011;35729;52.090;13.162;2023-12-07T13:21:05;88.72;;;38.55;;
49834;SDS011;35729;52.090;13.162;2023-12-07T13:23:37;75.70;;;31.95;;
49834;SDS011;35729;52.090;13.162;2023-12-07T13:26:06;73.68;;;31.05;;
49834;SDS011;35729;52.090;13.162;2023-12-07T13:28:34;73.25;;;28.55;;
49834;SDS011;35729;52.090;13.162;2023-12-07T13:31:03;79.65;;;33.60;;
49834;SDS011;35729;52.090;13.162;2023-12-07T13:33:32;78.55;;;34.45;;
49834;SDS011;35729;52.090;13.162;2023-12-07T13:36:00;80.38;;;35.33;;
49834;SDS011;35729;52.090;13.162;2023-12-07T13:38:29;80.15;;;35.45;;
49834;SDS011;35729;52.090;13.162;2023-12-07T13:41:07;74.97;;;31.65;;
49834;SDS011;35729;52.090;13.162;2023-12-07T13:43:35;79.60;;;32.00;;
49834;SDS011;35729;52.090;13.162;2023-12-07T13:46:04;77.18;;;35.33;;
49834;SDS011;35729;52.090;13.162;2023-12-07T13:48:33;79.00;;;35.00;;
49834;SDS011;35729;52.090;13.162;2023-12-07T13:51:02;74.10;;;32.50;;
49834;SDS011;35729;52.090;13.162;2023-12-07T13:53:31;70.25;;;34.45;;
49834;SDS011;35729;52.090;13.162;2023-12-07T13:56:00;70.25;;;30.08;;
49834;SDS011;35729;52.090;13.162;2023-12-07T13:58:32;72.80;;;31.23;;
49834;SDS011;35729;52.090;13.162;2023-12-07T14:01:00;64.80;;;27.48;;
49834;SDS011;35729;52.090;13.162;2023-12-07T14:03:29;66.50;;;29.85;;
49834;SDS011;35729;52.090;13.162;2023-12-07T14:05:57;74.00;;;32.70;;
49834;SDS011;35729;52.090;13.162;2023-12-07T14:08:27;69.03;;;29.92;;
49834;SDS011;35729;52.090;13.162;2023-12-07T14:10:56;68.68;;;30.17;;
49834;SDS011;35729;52.090;13.162;2023-12-07T14:13:24;66.32;;;29.80;;
49834;SDS011;35729;52.090;13.162;2023-12-07T14:15:56;69.20;;;32.75;;
49834;SDS011;35729;52.090;13.162;2023-12-07T14:18:24;68.25;;;30.50;;
49834;SDS011;35729;52.090;13.162;2023-12-07T14:20:53;63.33;;;31.35;;
49834;SDS011;35729;52.090;13.162;2023-12-07T14:23:22;73.45;;;31.70;;
49834;SDS011;35729;52.090;13.162;2023-12-07T14:25:51;68.88;;;29.55;;
49834;SDS011;35729;52.090;13.162;2023-12-07T14:28:23;77.35;;;32.50;;
49834;SDS011;35729;52.090;13.162;2023-12-07T14:30:49;75.75;;;33.50;;
49834;SDS011;35729;52.090;13.162;2023-12-07T14:33:24;74.00;;;33.95;;
49834;SDS011;35729;52.090;13.162;2023-12-07T14:35:52;70.10;;;33.05;;
49834;SDS011;35729;52.090;13.162;2023-12-07T14:38:21;71.15;;;33.55;;
49834;SDS011;35729;52.090;13.162;2023-12-07T14:40:49;78.97;;;34.40;;
49834;SDS011;35729;52.090;13.162;2023-12-07T14:43:20;74.35;;;33.67;;
49834;SDS011;35729;52.090;13.162;2023-12-07T14:45:48;70.38;;;32.38;;
49834;SDS011;35729;52.090;13.162;2023-12-07T14:48:17;70.03;;;33.70;;